Time;durP1;ratioP1;P1;durP2;ratioP2;P2;SDS_P1;SDS_P2;PMS_P1;PMS_P2;Temp;Humidity;BMP_temperature;BMP_pressure;BME280_temperature;BME280_humidity;BME280_pressure;Samples;Min_cycle;Max_cycle;Signal;HPM_P1;HPM_P2
2022/03/23 00:01:56;;;;;;;43.17;25.92;;;;;;;5.50;80.75;102821.88;5239321;28;20029;-62
2022/03/23 00:04:27;;;;;;;41.95;24.77;;;;;;;5.41;79.55;102822.09;5243744;28;20547;-62
2022/03/23 00:06:59;;;;;;;39.08;24.35;;;;;;;5.39;79.96;102819.50;5238648;28;20033;-62
2022/03/23 00:09:30;;;;;;;42.03;25.02;;;;;;;5.29;78.01;102825.88;5235192;28;20341;-62
2022/03/23 00:12:02;;;;;;;44.55;25.80;;;;;;;5.29;80.10;102818.81;5249853;28;20032;-62
2022/03/23 00:14:33;;;;;;;42.70;24.60;;;;;;;5.20;78.91;102829.63;5242847;28;20064;-62
2022/03/23 00:17:05;;;;;;;43.55;25.35;;;;;;;5.18;79.18;102826.13;5244620;28;20037;-62
2022/03/23 00:19:36;;;;;;;44.50;25.42;;;;;;;5.22;81.13;102822.50;5251527;28;20055;-62
2022/03/23 00:22:07;;;;;;;41.58;25.30;;;;;;;5.13;79.45;102824.50;5249115;28;20054;-62
2022/03/23 00:24:38;;;;;;;41.20;24.40;;;;;;;5.09;79.98;102821.91;5244221;28;20035;-62
2022/03/23 00:27:10;;;;;;;39.88;24.38;;;;;;;5.15;80.77;102831.47;5241802;28;20033;-62
2022/03/23 00:29:41;;;;;;;41.50;25.13;;;;;;;5.11;80.42;102829.81;5242535;28;20524;-62
2022/03/23 00:32:14;;;;;;;44.35;25.45;;;;;;;5.10;81.90;102826.31;5250701;28;20037;-62
2022/03/23 00:34:45;;;;;;;41.55;25.10;;;;;;;5.00;80.01;102826.50;5250004;28;20497;-62
2022/03/23 00:37:17;;;;;;;42.88;23.75;;;;;;;4.93;79.81;102831.09;5241096;28;20033;-62
2022/03/23 00:39:48;;;;;;;39.60;23.73;;;;;;;4.96;82.00;102824.84;5254793;28;20459;-62
2022/03/23 00:42:20;;;;;;;38.97;24.80;;;;;;;4.86;80.56;102824.16;5243637;28;20483;-62
2022/03/23 00:44:54;;;;;;;42.42;26.00;;;;;;;4.92;82.83;102824.03;5251376;28;20032;-62
2022/03/23 00:47:25;;;;;;;41.70;26.10;;;;;;;4.88;84.21;102825.00;5247185;28;20061;-62
2022/03/23 00:49:57;;;;;;;42.55;25.20;;;;;;;4.80;81.37;102825.16;5248092;28;20056;-62
2022/03/23 00:52:28;;;;;;;45.03;25.33;;;;;;;4.74;83.28;102821.75;5237852;28;20494;-62
2022/03/23 00:54:59;;;;;;;41.95;26.25;;;;;;;4.74;83.11;102822.66;5237290;28;20436;-62
2022/03/23 00:57:31;;;;;;;45.95;25.85;;;;;;;4.65;81.35;102817.53;5237834;28;20040;-62
2022/03/23 01:00:12;;;;;;;44.67;25.90;;;;;;;4.68;82.12;102826.28;5235100;28;20698;-61
2022/03/23 01:02:45;;;;;;;46.55;25.80;;;;;;;4.54;82.23;102816.88;5239109;28;20581;-62
2022/03/23 01:05:17;;;;;;;44.10;26.50;;;;;;;4.60;84.34;102811.47;5236288;28;20029;-62
2022/03/23 01:07:48;;;;;;;41.92;26.15;;;;;;;4.59;83.70;102812.38;5237782;28;20425;-61
2022/03/23 01:10:21;;;;;;;45.33;26.55;;;;;;;4.60;84.18;102817.66;5242416;28;20741;-62
2022/03/23 01:12:54;;;;;;;44.58;25.65;;;;;;;4.56;84.91;102815.94;5236612;28;20037;-61
2022/03/23 01:15:25;;;;;;;41.03;24.83;;;;;;;4.47;84.16;102809.06;5237395;28;20142;-62
2022/03/23 01:17:56;;;;;;;40.70;24.25;;;;;;;4.46;85.02;102817.88;5238614;28;20478;-62
2022/03/23 01:20:30;;;;;;;43.17;25.90;;;;;;;4.39;83.13;102818.94;5237132;28;20025;-62
2022/03/23 01:23:02;;;;;;;41.90;25.95;;;;;;;4.38;85.69;102811.88;5235059;28;20115;-61
2022/03/23 01:25:33;;;;;;;41.88;25.10;;;;;;;4.36;84.07;102812.81;5237327;28;20043;-62
2022/03/23 01:28:05;;;;;;;46.08;25.13;;;;;;;4.34;85.20;102822.56;5234188;28;20038;-62
2022/03/23 01:30:36;;;;;;;40.22;25.33;;;;;;;4.31;85.42;102812.88;5237733;28;20033;-62
2022/03/23 01:33:08;;;;;;;41.35;24.98;;;;;;;4.28;86.61;102802.41;5240090;28;20033;-62
2022/03/23 01:35:39;;;;;;;38.78;23.95;;;;;;;4.21;84.57;102798.97;5238241;28;20671;-62
2022/03/23 01:38:10;;;;;;;49.35;25.67;;;;;;;4.18;84.76;102795.50;5239763;28;20497;-62
2022/03/23 01:40:42;;;;;;;43.85;25.42;;;;;;;4.23;86.04;102802.47;5239225;28;20028;-62
2022/03/23 01:43:13;;;;;;;46.40;25.15;;;;;;;4.15;85.38;102798.22;5238412;28;20029;-62
2022/03/23 01:45:44;;;;;;;41.97;26.20;;;;;;;4.17;85.68;102793.78;5236183;28;20079;-62
2022/03/23 01:48:16;;;;;;;46.25;24.27;;;;;;;4.09;85.95;102797.44;5235234;28;20380;-62
2022/03/23 01:50:47;;;;;;;42.92;24.92;;;;;;;4.02;85.24;102793.16;5240830;28;20040;-62
2022/03/23 01:53:18;;;;;;;40.10;24.13;;;;;;;4.05;85.29;102795.75;5240262;28;20029;-62
2022/03/23 01:55:50;;;;;;;40.92;26.02;;;;;;;4.04;86.47;102787.84;5233874;28;20032;-62
2022/03/23 01:58:21;;;;;;;39.92;24.60;;;;;;;3.98;85.95;102794.09;5246201;28;20438;-62
2022/03/23 02:00:52;;;;;;;45.85;24.33;;;;;;;3.93;85.73;102791.56;5246222;28;20016;-62
2022/03/23 02:03:25;;;;;;;44.30;26.15;;;;;;;3.83;84.41;102797.00;5245231;28;20451;-62
2022/03/23 02:05:56;;;;;;;45.88;25.60;;;;;;;3.77;85.23;102779.50;5243055;28;20072;-62
2022/03/23 02:08:28;;;;;;;39.40;25.50;;;;;;;3.78;85.73;102785.66;5248362;28;20116;-62
2022/03/23 02:10:59;;;;;;;44.45;25.20;;;;;;;3.82;86.47;102788.22;5248873;28;21379;-61
2022/03/23 02:13:30;;;;;;;46.40;26.23;;;;;;;3.81;86.47;102790.88;5249940;28;20491;-62
2022/03/23 02:16:01;;;;;;;45.33;25.08;;;;;;;3.74;86.94;102787.50;5249932;28;20526;-62
2022/03/23 02:18:33;;;;;;;44.75;26.58;;;;;;;3.67;86.55;102791.13;5255617;28;20471;-62
2022/03/23 02:21:04;;;;;;;44.83;25.25;;;;;;;3.72;86.28;102789.25;5250164;28;20574;-62
2022/03/23 02:23:35;;;;;;;46.03;26.95;;;;;;;3.67;86.01;102784.06;5250334;28;20040;-61
2022/03/23 02:26:08;;;;;;;39.83;25.35;;;;;;;3.66;86.36;102789.38;5244570;28;20036;-62
2022/03/23 02:28:39;;;;;;;46.30;26.73;;;;;;;3.63;87.28;102787.66;5252065;28;20051;-62
2022/03/23 02:31:11;;;;;;;45.28;25.83;;;;;;;3.63;86.97;102795.56;5247193;28;20029;-62
2022/03/23 02:33:42;;;;;;;44.78;26.42;;;;;;;3.63;87.38;102786.78;5240120;28;20040;-61
2022/03/23 02:36:13;;;;;;;43.60;25.33;;;;;;;3.55;87.19;102784.28;5247520;28;20033;-61
2022/03/23 02:38:44;;;;;;;45.53;25.98;;;;;;;3.43;86.20;102793.25;5250437;28;20060;-62
2022/03/23 02:41:16;;;;;;;48.22;26.63;;;;;;;3.41;87.29;102789.75;5247198;28;20033;-61
2022/03/23 02:43:47;;;;;;;50.28;26.98;;;;;;;3.38;87.69;102792.44;5252840;28;20037;-62
2022/03/23 02:46:19;;;;;;;49.58;26.90;;;;;;;3.43;89.20;102790.63;5252763;28;20036;-62
2022/03/23 02:48:52;;;;;;;50.15;27.70;;;;;;;3.34;88.42;102788.97;5251021;28;20607;-61
2022/03/23 02:51:23;;;;;;;47.13;26.75;;;;;;;3.32;88.08;102790.78;5248138;28;20025;-62
2022/03/23 03:03:14;;;;;;;46.85;25.73;;;;;;;3.15;86.95;102790.16;5249993;28;20036;-62
2022/03/23 03:05:45;;;;;;;46.35;26.65;;;;;;;3.09;87.77;102787.59;5243715;28;20029;-61
2022/03/23 03:11:07;;;;;;;50.03;26.88;;;;;;;3.05;87.83;102789.41;5253182;28;20036;-62
2022/03/23 03:13:40;;;;;;;46.22;27.17;;;;;;;3.05;87.91;102797.31;5250703;28;20037;-62
2022/03/23 03:16:12;;;;;;;46.35;26.10;;;;;;;3.11;88.40;102791.09;5245697;28;20051;-62
2022/03/23 03:18:43;;;;;;;45.33;27.10;;;;;;;2.97;88.03;102793.03;5249774;28;20020;-62
2022/03/23 03:21:15;;;;;;;49.15;27.17;;;;;;;2.97;87.83;102790.38;5252363;28;20029;-62
2022/03/23 03:23:47;;;;;;;51.60;27.98;;;;;;;3.03;88.76;102798.22;5248802;28;20039;-62
2022/03/23 03:26:19;;;;;;;41.90;25.20;;;;;;;2.96;88.23;102800.06;5251143;28;20021;-62
2022/03/23 03:28:50;;;;;;;50.53;27.75;;;;;;;2.86;88.39;102795.81;5248839;28;20408;-61
2022/03/23 03:31:21;;;;;;;45.50;27.30;;;;;;;2.84;88.38;102797.56;5249110;28;20480;-62
2022/03/23 03:33:52;;;;;;;49.60;27.52;;;;;;;2.85;88.37;102799.34;5248365;28;20029;-62
2022/03/23 03:36:24;;;;;;;47.65;26.52;;;;;;;2.86;88.90;102801.94;5252920;28;20043;-62
2022/03/23 03:38:55;;;;;;;51.90;27.17;;;;;;;2.81;89.46;102795.84;5251262;28;20075;-62
2022/03/23 03:41:26;;;;;;;51.22;27.83;;;;;;;2.88;90.69;102794.91;5249691;28;20107;-61
2022/03/23 03:43:58;;;;;;;47.92;27.98;;;;;;;2.78;90.19;102789.75;5252284;28;20837;-62
2022/03/23 03:46:29;;;;;;;49.85;27.45;;;;;;;2.77;89.56;102790.66;5254212;28;20029;-62
2022/03/23 03:49:00;;;;;;;46.50;28.10;;;;;;;2.71;89.76;102794.25;5249302;28;20072;-62
2022/03/23 03:51:32;;;;;;;51.30;29.05;;;;;;;2.70;90.20;102797.75;5248326;28;20024;-61
2022/03/23 03:54:03;;;;;;;50.45;28.95;;;;;;;2.70;90.50;102797.75;5248574;28;20096;-62
2022/03/23 03:56:34;;;;;;;52.17;29.30;;;;;;;2.66;90.83;102801.31;5253794;28;20033;-62
2022/03/23 03:59:05;;;;;;;50.65;30.27;;;;;;;2.66;90.25;102798.69;5249205;28;20044;-62
2022/03/23 04:01:37;;;;;;;57.50;30.90;;;;;;;2.66;90.37;102802.19;5245354;28;20468;-62
2022/03/23 04:04:08;;;;;;;53.58;30.35;;;;;;;2.64;90.53;102797.81;5250458;28;20506;-62
2022/03/23 04:06:39;;;;;;;50.53;30.00;;;;;;;2.63;90.66;102796.09;5252975;28;20044;-62
2022/03/23 04:09:11;;;;;;;53.45;30.27;;;;;;;2.66;90.40;102799.53;5249945;28;20025;-62
2022/03/23 04:11:42;;;;;;;51.60;28.98;;;;;;;2.71;90.62;102802.16;5249137;28;20056;-62
2022/03/23 04:14:13;;;;;;;51.28;29.88;;;;;;;2.62;90.26;102797.84;5250636;28;20059;-63
2022/03/23 04:16:45;;;;;;;54.25;30.33;;;;;;;2.64;91.35;102797.81;5245350;28;20036;-61
2022/03/23 04:19:16;;;;;;;53.85;29.02;;;;;;;2.65;90.56;102794.31;5244272;28;20104;-62
2022/03/23 04:21:47;;;;;;;53.20;29.38;;;;;;;2.54;90.09;102797.94;5246464;28;20083;-62
2022/03/23 04:24:18;;;;;;;55.58;30.40;;;;;;;2.55;90.03;102804.06;5249771;28;20033;-62
2022/03/23 04:26:50;;;;;;;58.70;30.35;;;;;;;2.49;90.27;102801.50;5245158;28;20029;-62
2022/03/23 04:29:24;;;;;;;50.47;29.50;;;;;;;2.53;90.53;102805.84;5250047;28;20021;-62
2022/03/23 04:31:56;;;;;;;53.50;30.17;;;;;;;2.51;90.88;102802.34;5246167;28;20490;-62
2022/03/23 04:34:27;;;;;;;58.38;30.42;;;;;;;2.54;90.30;102797.94;5249707;28;20104;-62
2022/03/23 04:36:58;;;;;;;55.25;30.10;;;;;;;2.42;90.47;102807.75;5250078;28;20113;-62
2022/03/23 04:39:29;;;;;;;61.03;31.35;;;;;;;2.50;90.83;102803.25;5249436;28;20479;-62
2022/03/23 04:42:02;;;;;;;52.88;29.45;;;;;;;2.36;90.64;102811.31;5244662;28;20040;-62
2022/03/23 04:44:33;;;;;;;53.33;30.17;;;;;;;2.39;90.98;102813.03;5246409;28;20104;-62
2022/03/23 04:47:05;;;;;;;51.00;29.00;;;;;;;2.46;91.75;102814.72;5247876;28;20047;-62
2022/03/23 04:49:36;;;;;;;55.33;29.83;;;;;;;2.35;91.69;102809.56;5252419;28;20024;-62
2022/03/23 04:52:08;;;;;;;50.75;29.17;;;;;;;2.26;91.13;102812.28;5245627;28;20032;-62
2022/03/23 04:54:39;;;;;;;52.05;28.02;;;;;;;2.29;90.98;102809.63;5244265;28;20314;-62
2022/03/23 04:57:10;;;;;;;52.70;30.90;;;;;;;2.34;92.18;102818.38;5245582;28;20029;-62
2022/03/23 04:59:42;;;;;;;49.85;29.13;;;;;;;2.31;92.26;102826.28;5250747;28;20020;-62
2022/03/23 05:02:13;;;;;;;49.67;28.90;;;;;;;2.31;91.70;102826.28;5256841;28;20020;-62
2022/03/23 05:04:45;;;;;;;49.67;27.88;;;;;;;2.20;91.28;102829.03;5245159;28;20040;-62
2022/03/23 05:07:16;;;;;;;54.47;29.83;;;;;;;2.21;91.82;102837.81;5249653;28;20047;-62
2022/03/23 05:09:48;;;;;;;53.33;29.75;;;;;;;2.16;91.72;102838.69;5245586;28;20277;-61
2022/03/23 05:12:19;;;;;;;55.83;28.80;;;;;;;2.21;91.91;102832.56;5254966;28;20064;-62
2022/03/23 05:14:50;;;;;;;52.15;28.33;;;;;;;2.17;91.83;102844.88;5236160;28;20048;-62
2022/03/23 05:17:21;;;;;;;50.80;28.05;;;;;;;2.15;91.03;102839.63;5242899;28;20035;-62
2022/03/23 05:19:53;;;;;;;50.17;28.65;;;;;;;2.08;91.44;102843.19;5233809;28;20625;-62
2022/03/23 05:22:24;;;;;;;51.83;29.08;;;;;;;2.05;92.05;102840.59;5239119;28;20079;-62
2022/03/23 05:24:55;;;;;;;53.45;28.77;;;;;;;2.02;91.96;102837.09;5239666;28;20339;-62
2022/03/23 05:27:27;;;;;;;51.63;29.38;;;;;;;2.05;91.94;102837.97;5236133;28;20044;-62
2022/03/23 05:29:58;;;;;;;50.35;28.25;;;;;;;1.99;91.65;102840.63;5238569;28;20075;-62
2022/03/23 05:32:29;;;;;;;52.08;29.35;;;;;;;2.03;91.47;102838.84;5239104;28;20106;-62
2022/03/23 05:35:02;;;;;;;47.83;28.15;;;;;;;1.96;92.03;102845.94;5243862;28;20415;-62
2022/03/23 05:37:33;;;;;;;50.08;29.17;;;;;;;1.94;92.40;102853.84;5242681;28;20017;-61
2022/03/23 05:40:06;;;;;;;56.22;29.33;;;;;;;1.92;92.13;102847.72;5244698;28;20403;-61
2022/03/23 05:42:38;;;;;;;52.85;27.75;;;;;;;1.90;91.86;102844.22;5240098;28;20029;-61
2022/03/23 05:45:10;;;;;;;56.20;29.05;;;;;;;1.96;92.74;102845.94;5242140;28;20029;-62
2022/03/23 05:47:41;;;;;;;52.22;29.50;;;;;;;1.89;92.08;102850.34;5242946;28;20629;-61
2022/03/23 05:50:12;;;;;;;50.97;28.02;;;;;;;1.90;92.04;102846.84;5240837;28;20033;-62
2022/03/23 05:52:43;;;;;;;51.20;29.92;;;;;;;1.91;92.32;102853.84;5244935;28;20074;-62
2022/03/23 05:55:15;;;;;;;53.13;28.60;;;;;;;1.85;92.26;102853.03;5246350;28;20033;-62
2022/03/23 05:57:46;;;;;;;45.83;27.60;;;;;;;1.89;92.22;102847.72;5244392;28;20461;-62
2022/03/23 06:00:19;;;;;;;50.97;29.42;;;;;;;1.88;92.39;102859.16;5241408;28;20032;-62
2022/03/23 06:02:51;;;;;;;51.80;29.30;;;;;;;1.90;92.50;102862.66;5247647;28;20044;-62
2022/03/23 06:05:22;;;;;;;51.35;29.20;;;;;;;2.02;93.24;102855.53;5245644;28;20471;-62
2022/03/23 06:07:53;;;;;;;54.25;28.77;;;;;;;1.98;92.74;102859.94;5248295;28;20120;-62
2022/03/23 06:10:25;;;;;;;57.03;29.73;;;;;;;1.97;92.80;102866.09;5246560;28;20078;-62
2022/03/23 06:12:56;;;;;;;55.53;28.83;;;;;;;2.01;93.22;102862.53;5245126;28;20047;-61
2022/03/23 06:15:27;;;;;;;52.20;29.08;;;;;;;2.07;93.47;102864.25;5249001;28;20419;-62
2022/03/23 06:17:59;;;;;;;53.60;29.90;;;;;;;2.05;93.75;102866.91;5250829;28;20090;-62
2022/03/23 06:20:30;;;;;;;54.40;31.10;;;;;;;2.06;93.28;102858.13;5249281;28;20115;-61
2022/03/23 06:23:02;;;;;;;56.10;30.58;;;;;;;2.10;93.48;102862.47;5244929;28;20032;-62
2022/03/23 06:25:33;;;;;;;56.13;31.17;;;;;;;2.24;93.79;102870.25;5249831;28;20424;-62
2022/03/23 06:28:04;;;;;;;55.42;31.88;;;;;;;2.14;94.13;102861.53;5249041;28;20081;-61
2022/03/23 06:30:36;;;;;;;51.95;30.98;;;;;;;2.20;94.06;102865.88;5242875;28;20039;-62
2022/03/23 06:33:07;;;;;;;52.20;29.77;;;;;;;2.26;94.17;102865.84;5241310;28;20029;-62
2022/03/23 06:35:38;;;;;;;53.47;30.42;;;;;;;2.29;94.09;102867.59;5239783;28;20702;-62
2022/03/23 06:38:09;;;;;;;52.97;31.83;;;;;;;2.31;93.19;102871.94;5241841;28;20548;-62
2022/03/23 06:40:41;;;;;;;56.38;30.23;;;;;;;2.38;93.31;102866.59;5262718;28;20085;-62
2022/03/23 06:43:12;;;;;;;54.40;30.05;;;;;;;2.45;93.42;102868.31;5248076;28;20055;-62
2022/03/23 06:45:44;;;;;;;54.30;29.83;;;;;;;2.48;93.23;102884.09;5260496;28;20035;-62
2022/03/23 06:48:15;;;;;;;53.53;30.70;;;;;;;2.53;93.61;102887.53;5251585;28;20118;-61
2022/03/23 06:50:46;;;;;;;53.67;30.42;;;;;;;2.59;93.04;102878.69;5250758;28;20036;-62
2022/03/23 06:53:18;;;;;;;56.90;31.08;;;;;;;2.65;93.06;102890.06;5252138;28;20470;-62
2022/03/23 06:55:49;;;;;;;52.75;31.38;;;;;;;2.68;92.75;102887.38;5250010;28;20237;-62
2022/03/23 06:58:21;;;;;;;54.78;31.10;;;;;;;2.75;92.43;102886.44;5253376;28;20033;-61
2022/03/23 07:00:52;;;;;;;54.10;31.63;;;;;;;2.79;92.01;102887.28;5251074;28;20368;-62
2022/03/23 07:03:24;;;;;;;55.20;29.98;;;;;;;2.90;92.22;102889.78;5259170;28;20032;-62
2022/03/23 07:05:55;;;;;;;51.95;31.45;;;;;;;2.93;91.47;102889.75;5251408;28;20146;-61
2022/03/23 07:11:16;;;;;;;54.95;30.90;;;;;;;3.08;90.79;102886.91;5254812;28;20033;-61
2022/03/23 07:13:47;;;;;;;52.33;30.83;;;;;;;3.13;90.33;102893.03;5253671;28;20032;-62
2022/03/23 07:16:19;;;;;;;49.38;30.88;;;;;;;3.22;90.16;102897.31;5246675;28;20049;-62
2022/03/23 07:18:50;;;;;;;52.60;32.05;;;;;;;3.34;89.92;102901.56;5255815;28;20467;-62
2022/03/23 07:21:23;;;;;;;51.63;30.65;;;;;;;3.46;89.17;102897.88;5254686;28;20052;-62
2022/03/23 07:23:54;;;;;;;49.25;29.25;;;;;;;3.56;89.62;102896.84;5257780;28;20550;-62
2022/03/23 07:26:25;;;;;;;53.92;30.88;;;;;;;3.71;88.63;102903.69;5257423;28;20542;-62
2022/03/23 07:28:56;;;;;;;50.67;29.58;;;;;;;3.79;88.34;102899.16;5250276;28;20037;-61
2022/03/23 07:31:28;;;;;;;59.05;30.48;;;;;;;3.95;87.18;102898.91;5252150;28;20651;-62
2022/03/23 07:33:59;;;;;;;54.75;30.77;;;;;;;3.99;86.37;102900.63;5257922;28;20041;-62
2022/03/23 07:36:31;;;;;;;51.03;29.20;;;;;;;4.19;84.68;102902.94;5256768;28;20605;-62
2022/03/23 07:39:03;;;;;;;47.45;29.40;;;;;;;4.27;84.56;102901.03;5253506;28;20725;-62
2022/03/23 07:41:34;;;;;;;58.05;29.98;;;;;;;4.38;83.87;102904.38;5258489;28;20033;-62
2022/03/23 07:44:06;;;;;;;51.88;29.10;;;;;;;4.46;83.67;102907.75;5247554;28;20117;-62
2022/03/23 07:46:37;;;;;;;53.28;29.13;;;;;;;4.61;82.59;102908.41;5249234;28;20402;-62
2022/03/23 07:49:08;;;;;;;52.20;29.30;;;;;;;4.74;82.28;102915.19;5257386;28;20102;-62
2022/03/23 07:51:40;;;;;;;53.25;29.33;;;;;;;4.93;81.35;102914.81;5255692;28;20470;-61
2022/03/23 07:54:11;;;;;;;55.60;29.60;;;;;;;5.06;80.43;102918.97;5250707;28;20499;-62
2022/03/23 07:56:43;;;;;;;47.85;28.50;;;;;;;5.18;79.54;102916.09;5245172;28;20083;-62
2022/03/23 07:59:14;;;;;;;51.67;29.10;;;;;;;5.29;79.08;102919.41;5242296;28;20439;-62
2022/03/23 08:01:45;;;;;;;50.00;28.15;;;;;;;5.44;78.16;102923.47;5255734;28;20143;-62
2022/03/23 08:04:17;;;;;;;49.42;28.42;;;;;;;5.61;77.24;102924.91;5261956;28;20428;-62
2022/03/23 08:06:48;;;;;;;55.00;29.23;;;;;;;5.74;76.15;102925.50;5258879;28;20044;-62
2022/03/23 08:09:19;;;;;;;47.05;28.08;;;;;;;5.88;75.60;102923.41;5252399;28;20499;-62
2022/03/23 08:11:50;;;;;;;52.50;29.70;;;;;;;6.00;75.32;102924.91;5242921;28;20133;-62
2022/03/23 08:14:22;;;;;;;51.45;28.70;;;;;;;6.17;74.11;102930.66;5244200;28;20044;-62
2022/03/23 08:16:53;;;;;;;46.30;28.85;;;;;;;6.29;73.89;102929.53;5250815;28;20033;-62
2022/03/23 08:19:25;;;;;;;52.22;26.42;;;;;;;6.47;72.97;102918.44;5252215;28;20384;-62
2022/03/23 08:21:56;;;;;;;48.28;28.17;;;;;;;6.73;72.28;102921.31;5251358;28;20049;-62
2022/03/23 08:24:27;;;;;;;51.00;28.85;;;;;;;6.76;72.27;102919.44;5256493;28;20032;-62
2022/03/23 08:26:59;;;;;;;47.13;28.20;;;;;;;6.94;71.08;102918.09;5254551;28;20028;-62
2022/03/23 08:29:31;;;;;;;44.05;29.02;;;;;;;7.07;71.16;102927.41;5244636;28;20442;-62
2022/03/23 08:32:02;;;;;;;47.70;27.92;;;;;;;7.26;70.51;102918.94;5242384;28;20025;-62
2022/03/23 08:34:34;;;;;;;47.25;28.73;;;;;;;7.40;70.41;102918.53;5256927;28;20037;-62
2022/03/23 08:37:05;;;;;;;50.38;28.92;;;;;;;7.60;68.80;102923.25;5248530;28;20041;-62
2022/03/23 08:39:36;;;;;;;48.75;28.15;;;;;;;7.74;68.07;102929.00;5248520;28;20025;-62
2022/03/23 08:42:08;;;;;;;47.35;28.90;;;;;;;7.83;68.06;102920.75;5241206;28;20029;-62
2022/03/23 08:44:41;;;;;;;47.92;28.50;;;;;;;7.96;65.93;102917.72;5253467;28;20029;-62
2022/03/23 08:47:12;;;;;;;42.90;27.60;;;;;;;8.12;65.51;102921.59;5249627;28;20025;-62
2022/03/23 08:49:44;;;;;;;48.67;28.70;;;;;;;8.28;66.02;102921.09;5245131;28;20489;-62
2022/03/23 08:52:16;;;;;;;47.60;27.95;;;;;;;8.31;65.32;102921.84;5243712;28;20033;-62
2022/03/23 08:54:47;;;;;;;44.90;28.83;;;;;;;8.47;65.36;102924.88;5250118;28;20043;-62
2022/03/23 08:57:18;;;;;;;44.45;28.65;;;;;;;8.64;63.47;102925.16;5255631;28;20041;-62
2022/03/23 08:59:49;;;;;;;47.40;27.77;;;;;;;8.90;63.69;102922.50;5254362;28;21046;-62
2022/03/23 09:02:21;;;;;;;43.97;27.92;;;;;;;9.12;62.59;102925.28;5250280;28;20483;-62
2022/03/23 09:04:52;;;;;;;43.65;28.38;;;;;;;9.28;62.61;102921.13;5247875;28;20118;-62
2022/03/23 09:07:23;;;;;;;50.60;28.85;;;;;;;9.42;61.11;102924.13;5240197;28;20037;-62
2022/03/23 09:09:54;;;;;;;48.22;28.65;;;;;;;9.44;61.11;102926.72;5242239;28;20195;-62
2022/03/23 09:12:26;;;;;;;46.15;27.85;;;;;;;9.51;60.12;102925.56;5241116;28;20032;-62
2022/03/23 09:14:58;;;;;;;42.15;27.10;;;;;;;9.83;58.90;102923.41;5239328;28;20049;-62
2022/03/23 09:17:29;;;;;;;44.95;28.17;;;;;;;9.91;58.10;102923.13;5248877;28;20104;-62
2022/03/23 09:20:01;;;;;;;53.10;29.70;;;;;;;10.12;57.08;102918.69;5252076;28;20024;-63
2022/03/23 09:22:36;;;;;;;45.10;27.98;;;;;;;10.33;56.60;102931.16;5246462;28;20423;-62
2022/03/23 09:25:10;;;;;;;44.60;27.98;;;;;;;10.62;56.16;102925.53;5242770;28;20514;-62
2022/03/23 09:27:43;;;;;;;;;;;;;;;10.40;62.72;102926.47;5250099;28;20171;-63
2022/03/23 09:30:15;;;;;;;44.50;29.45;;;;;;;10.87;55.97;102919.97;5242793;28;19917;-62
2022/03/23 09:32:47;;;;;;;42.60;28.75;;;;;;;11.19;53.64;102918.53;5235620;28;20025;-63
2022/03/23 09:35:19;;;;;;;41.60;27.27;;;;;;;11.25;52.85;102918.25;5248820;28;20044;-64
2022/03/23 09:37:50;;;;;;;45.60;28.55;;;;;;;11.42;53.47;102914.78;5252812;28;20483;-62
2022/03/23 09:40:31;;;;;;;43.63;28.77;;;;;;;11.27;56.01;102919.03;5237359;28;20033;-62
2022/03/23 09:43:05;;;;;;;43.42;27.23;;;;;;;11.51;54.14;102918.84;5245465;28;20030;-63
2022/03/23 09:48:17;;;;;;;31.90;21.25;;;;;;;11.93;47.52;102921.28;5249727;28;20269;-63
2022/03/23 09:50:53;;;;;;;31.85;21.08;;;;;;;12.00;48.62;102921.00;5243156;28;20029;-63
2022/03/23 09:53:25;;;;;;;31.58;20.98;;;;;;;12.16;47.97;102922.84;5247763;28;20182;-63
2022/03/23 09:55:56;;;;;;;32.67;20.10;;;;;;;12.22;46.09;102924.34;5242025;28;20476;-63
2022/03/23 09:58:27;;;;;;;31.25;20.02;;;;;;;12.33;45.19;102923.78;5248951;28;20061;-63
2022/03/23 10:00:59;;;;;;;37.92;21.33;;;;;;;12.43;45.31;102918.84;5244047;28;20475;-63
2022/03/23 10:04:05;;;;;;;34.38;23.10;;;;;;;12.47;50.00;102928.44;5244064;28;20044;-63
2022/03/23 10:07:00;;;;;;;35.47;23.30;;;;;;;12.72;50.11;102920.88;5246310;28;20036;-63
2022/03/23 10:09:44;;;;;;;38.45;22.48;;;;;;;12.84;47.02;102929.22;5252167;28;20029;-63
2022/03/23 10:13:07;;;;;;;36.17;22.00;;;;;;;12.91;47.81;102923.44;5244506;28;20040;-63
2022/03/23 10:16:06;;;;;;;33.53;21.75;;;;;;;13.06;45.80;102936.97;5243464;28;20049;-63
2022/03/23 10:18:50;;;;;;;32.83;21.65;;;;;;;13.03;46.37;102927.28;5242799;28;20118;-63
2022/03/23 10:21:24;;;;;;;31.40;20.90;;;;;;;13.30;44.31;102926.78;5253780;28;20087;-63
2022/03/23 10:24:03;;;;;;;31.55;21.15;;;;;;;13.44;43.37;102928.69;5244565;28;20079;-63
2022/03/23 10:26:41;;;;;;;30.75;20.88;;;;;;;13.41;43.94;102926.19;5251668;28;20051;-63
2022/03/23 10:29:21;;;;;;;37.63;23.08;;;;;;;13.52;43.77;102927.31;5238159;28;20040;-63
2022/03/23 10:32:04;;;;;;;32.05;21.35;;;;;;;13.58;43.35;102933.31;5245071;28;20410;-63
2022/03/23 10:34:40;;;;;;;34.83;21.23;;;;;;;13.66;42.99;102928.38;5238418;28;20079;-63
2022/03/23 10:37:14;;;;;;;31.67;22.15;;;;;;;13.80;42.50;102925.75;5252776;28;20056;-63
2022/03/23 10:39:48;;;;;;;30.02;22.08;;;;;;;13.92;42.09;102922.38;5244393;28;20565;-63
2022/03/23 10:42:20;;;;;;;31.92;22.88;;;;;;;13.95;41.11;102928.53;5244035;28;20056;-63
2022/03/23 10:45:12;;;;;;;31.90;20.92;;;;;;;14.05;44.51;102921.66;5254606;28;20036;-63
2022/03/23 10:47:45;;;;;;;34.28;22.55;;;;;;;14.21;41.05;102922.53;5248079;28;20033;-63
2022/03/23 10:50:17;;;;;;;33.75;22.15;;;;;;;14.11;41.21;102914.13;5251363;28;20528;-63
2022/03/23 10:52:58;;;;;;;31.67;20.73;;;;;;;14.18;40.93;102911.94;5254111;28;20032;-63
2022/03/23 10:55:34;;;;;;;30.92;20.85;;;;;;;14.45;40.52;102912.13;5260126;28;20483;-63
2022/03/23 10:58:20;;;;;;;31.15;20.92;;;;;;;14.55;40.54;102909.75;5253456;28;20031;-63
2022/03/23 11:01:09;;;;;;;32.00;20.60;;;;;;;14.45;42.52;102905.91;5246696;28;20160;-63
2022/03/23 11:03:42;;;;;;;27.75;19.92;;;;;;;14.60;39.78;102909.53;5243393;28;20025;-63
2022/03/23 11:06:17;;;;;;;30.40;19.88;;;;;;;14.60;40.23;102907.69;5250608;28;20035;-63
2022/03/23 11:08:48;;;;;;;;;;;;;;;14.49;44.44;102907.44;5249734;28;20040;-63
2022/03/23 11:16:49;;;;;;;31.73;20.73;;;;;;;14.93;38.77;102901.19;5255041;28;20049;-63
2022/03/23 11:19:23;;;;;;;28.67;20.20;;;;;;;14.99;36.55;102911.56;5252195;28;20048;-63
2022/03/23 11:22:05;;;;;;;28.52;20.23;;;;;;;14.95;36.75;102899.28;5245150;28;20040;-66
2022/03/23 11:24:40;;;;;;;28.67;20.27;;;;;;;15.03;37.09;102899.69;5252799;28;20029;-66
2022/03/23 11:27:17;;;;;;;26.92;19.92;;;;;;;14.89;37.62;102891.59;5245795;28;20055;-66
2022/03/23 11:29:49;;;;;;;29.13;20.73;;;;;;;15.10;36.48;102892.94;5252151;28;20033;-66
2022/03/23 11:32:28;;;;;;;30.63;20.10;;;;;;;14.99;38.99;102894.56;5252110;28;20041;-66
2022/03/23 11:35:02;;;;;;;28.45;20.50;;;;;;;15.15;37.63;102892.66;5249663;28;20442;-66
2022/03/23 11:37:35;;;;;;;26.73;18.73;;;;;;;15.40;35.99;102893.78;5244442;28;20468;-66
2022/03/23 11:40:07;;;;;;;25.63;18.90;;;;;;;15.43;34.45;102889.06;5244576;28;20063;-66
2022/03/23 11:42:38;;;;;;;26.17;18.63;;;;;;;15.44;34.57;102882.72;5241358;28;20443;-66
2022/03/23 11:45:12;;;;;;;23.38;16.33;;;;;;;15.59;31.84;102882.69;5254777;28;20475;-66
2022/03/23 11:47:58;;;;;;;24.33;17.70;;;;;;;15.59;35.19;102894.31;5255765;28;20056;-66
2022/03/23 11:50:39;;;;;;;23.55;17.42;;;;;;;15.71;33.38;102881.03;5250729;28;20216;-66
2022/03/23 11:53:32;;;;;;;24.83;17.95;;;;;;;15.81;35.15;102883.03;5258563;28;20025;-66
2022/03/23 11:56:05;;;;;;;27.55;19.60;;;;;;;16.08;33.12;102885.69;5244687;28;20033;-66
2022/03/23 11:58:38;;;;;;;30.17;20.25;;;;;;;15.90;33.60;102878.88;5244073;28;20088;-66
2022/03/23 12:01:14;;;;;;;29.70;20.38;;;;;;;15.97;32.65;102880.16;5248691;28;20475;-66
2022/03/23 12:03:57;;;;;;;26.73;18.45;;;;;;;16.12;34.65;102878.28;5247690;28;20666;-66
2022/03/23 12:06:40;;;;;;;26.40;20.10;;;;;;;16.09;34.26;102867.72;5241083;28;20489;-66